Time;durP1;ratioP1;P1;durP2;ratioP2;P2;SDS_P1;SDS_P2;PMS_P1;PMS_P2;Temp;Humidity;BMP_temperature;BMP_pressure;BME280_temperature;BME280_humidity;BME280_pressure;Samples;Min_cycle;Max_cycle;Signal;HPM_P1;HPM_P2
2023/10/19 00:01:17;;;;;;;3.45;1.20;;;;;;;;;;5132758;27;20501;-74
2023/10/19 00:03:45;;;;;;;3.75;1.30;;;;;;;;;;5133327;27;20047;-72
2023/10/19 00:06:11;;;;;;;3.42;1.00;;;;;;;;;;5132896;27;20076;-69
2023/10/19 00:08:41;;;;;;;2.55;1.20;;;;;;;;;;5132461;27;20541;-72
2023/10/19 00:11:10;;;;;;;2.72;1.20;;;;;;;;;;5132826;27;20045;-75
2023/10/19 00:13:38;;;;;;;3.30;1.40;;;;;;;;;;5132947;27;20548;-75
2023/10/19 00:16:22;;;;;;;3.67;1.30;;;;;;;;;;5132727;27;20142;-75
2023/10/19 00:18:50;;;;;;;2.72;1.23;;;;;;;;;;5132772;27;20047;-75
2023/10/19 00:21:27;;;;;;;2.38;1.30;;;;;;;;;;5132598;27;20055;-75
2023/10/19 00:24:04;;;;;;;2.28;1.10;;;;;;;;;;5132399;27;20043;-74
2023/10/19 00:26:32;;;;;;;6.00;1.80;;;;;;;;;;5132531;27;20112;-75
2023/10/19 00:29:05;;;;;;;3.20;1.20;;;;;;;;;;5132735;27;20059;-75
2023/10/19 00:31:36;;;;;;;2.85;1.20;;;;;;;;;;5132454;27;20130;-75
2023/10/19 00:34:04;;;;;;;2.75;1.33;;;;;;;;;;5132294;27;20043;-75
2023/10/19 00:36:31;;;;;;;3.40;1.30;;;;;;;;;;5132466;27;20055;-76
2023/10/19 00:39:00;;;;;;;3.25;1.60;;;;;;;;;;5131817;27;20078;-75
2023/10/19 00:41:30;;;;;;;3.00;1.40;;;;;;;;;;5132217;27;20043;-76
2023/10/19 00:44:11;;;;;;;3.08;1.38;;;;;;;;;;5132531;27;20043;-68
2023/10/19 00:49:12;;;;;;;3.22;1.35;;;;;;;;;;5132294;27;20399;-69
2023/10/19 00:51:53;;;;;;;3.50;1.27;;;;;;;;;;5113517;27;20078;-72
2023/10/19 00:54:30;;;;;;;4.20;1.83;;;;;;;;;;5131610;27;20047;-75
2023/10/19 00:57:03;;;;;;;2.88;1.42;;;;;;;;;;5131892;27;20057;-74
2023/10/19 00:59:30;;;;;;;3.97;1.42;;;;;;;;;;5131659;27;20039;-74
2023/10/19 01:02:16;;;;;;;2.50;1.20;;;;;;;;;;5131878;27;20680;-75
2023/10/19 01:04:46;;;;;;;4.32;1.60;;;;;;;;;;5132368;27;20107;-75
2023/10/19 01:07:21;;;;;;;3.53;1.70;;;;;;;;;;5131610;27;20206;-73
2023/10/19 01:09:52;;;;;;;4.95;1.58;;;;;;;;;;5131613;27;20104;-75
2023/10/19 01:12:25;;;;;;;4.70;1.70;;;;;;;;;;5132035;27;20050;-75
2023/10/19 01:15:52;;;;;;;6.68;1.80;;;;;;;;;;5131962;27;20050;-75
2023/10/19 01:17:56;;;;;;;4.85;1.80;;;;;;;;;;5117030;27;20063;-75
2023/10/19 01:22:53;;;;;;;3.00;1.60;;;;;;;;;;5131580;27;20047;-74
2023/10/19 01:25:44;;;;;;;3.78;1.77;;;;;;;;;;5131324;27;20127;-74
2023/10/19 01:28:10;;;;;;;5.30;1.90;;;;;;;;;;5131032;27;20459;-75
2023/10/19 01:30:38;;;;;;;5.00;1.58;;;;;;;;;;5131453;27;20047;-73
2023/10/19 01:33:12;;;;;;;3.88;1.92;;;;;;;;;;5131167;27;20043;-72
2023/10/19 01:38:25;;;;;;;4.13;2.10;;;;;;;;;;5130620;27;20531;-75
2023/10/19 01:40:54;;;;;;;4.53;1.92;;;;;;;;;;5131144;27;20043;-74
2023/10/19 01:43:21;;;;;;;5.15;2.00;;;;;;;;;;5131279;27;20039;-74
2023/10/19 01:45:53;;;;;;;2.75;1.70;;;;;;;;;;5131202;27;20039;-74
2023/10/19 01:48:23;;;;;;;2.78;1.35;;;;;;;;;;5130948;27;20046;-75
2023/10/19 01:50:50;;;;;;;4.78;1.50;;;;;;;;;;5131079;27;20047;-75
2023/10/19 01:53:17;;;;;;;4.55;1.58;;;;;;;;;;5130747;27;20124;-72
2023/10/19 01:55:47;;;;;;;4.18;1.63;;;;;;;;;;5131052;27;20049;-73
2023/10/19 01:58:14;;;;;;;3.03;1.60;;;;;;;;;;5130481;27;20086;-74
2023/10/19 02:00:43;;;;;;;4.50;1.45;;;;;;;;;;5130606;27;20134;-73
2023/10/19 02:03:10;;;;;;;5.30;1.60;;;;;;;;;;5130509;27;20119;-75
2023/10/19 02:05:41;;;;;;;4.40;1.55;;;;;;;;;;5130537;27;20127;-75
2023/10/19 02:08:08;;;;;;;3.15;1.58;;;;;;;;;;5130107;27;20043;-75
2023/10/19 02:10:35;;;;;;;3.47;1.60;;;;;;;;;;5130202;27;20040;-74
2023/10/19 02:13:06;;;;;;;3.90;1.50;;;;;;;;;;5130354;27;20057;-74
2023/10/19 02:15:36;;;;;;;3.13;1.55;;;;;;;;;;5130486;27;20047;-75
2023/10/19 02:18:03;;;;;;;3.22;1.48;;;;;;;;;;5130042;27;20058;-75
2023/10/19 02:20:31;;;;;;;6.05;1.88;;;;;;;;;;5130143;27;20559;-75
2023/10/19 02:23:09;;;;;;;6.00;1.60;;;;;;;;;;5129713;27;20486;-76
2023/10/19 02:25:36;;;;;;;6.35;1.88;;;;;;;;;;5130383;27;20081;-75
2023/10/19 02:28:09;;;;;;;7.88;1.98;;;;;;;;;;5130067;27;20053;-75
2023/10/19 02:30:35;;;;;;;6.63;1.65;;;;;;;;;;5130122;27;20081;-76
2023/10/19 02:33:04;;;;;;;6.80;1.60;;;;;;;;;;5130146;27;20051;-75
2023/10/19 02:35:30;;;;;;;9.35;2.25;;;;;;;;;;5130100;27;20460;-73
2023/10/19 02:37:58;;;;;;;8.40;2.30;;;;;;;;;;5129824;27;20043;-74
2023/10/19 02:40:25;;;;;;;4.78;1.85;;;;;;;;;;5129980;27;20399;-74
2023/10/19 02:42:53;;;;;;;6.05;1.80;;;;;;;;;;5130046;27;20043;-74
2023/10/19 02:45:20;;;;;;;9.57;1.90;;;;;;;;;;5130188;27;20498;-74
2023/10/19 02:47:47;;;;;;;9.18;2.00;;;;;;;;;;5129895;27;20043;-75
2023/10/19 02:50:16;;;;;;;11.55;2.00;;;;;;;;;;5130062;27;20047;-75
2023/10/19 02:52:43;;;;;;;6.50;1.80;;;;;;;;;;5129798;27;20054;-75
2023/10/19 02:55:10;;;;;;;12.00;2.08;;;;;;;;;;5129525;27;20236;-72
2023/10/19 02:57:37;;;;;;;10.52;1.90;;;;;;;;;;5129717;27;20043;-76
2023/10/19 03:00:14;;;;;;;9.25;2.22;;;;;;;;;;5129677;27;20050;-76
2023/10/19 03:02:40;;;;;;;7.90;1.95;;;;;;;;;;5130272;27;20088;-74
2023/10/19 03:05:14;;;;;;;8.70;1.70;;;;;;;;;;5129795;27;20050;-75
2023/10/19 03:07:44;;;;;;;8.55;1.95;;;;;;;;;;5130034;27;20047;-75
2023/10/19 03:12:57;;;;;;;7.85;1.70;;;;;;;;;;5129727;27;20047;-75
2023/10/19 03:15:24;;;;;;;9.70;2.20;;;;;;;;;;5129144;27;20441;-74
2023/10/19 03:17:50;;;;;;;9.32;2.17;;;;;;;;;;5129110;27;20434;-73
2023/10/19 03:20:23;;;;;;;9.85;1.90;;;;;;;;;;5129262;27;20605;-74
2023/10/19 03:22:50;;;;;;;6.68;1.55;;;;;;;;;;5129388;27;20069;-75
2023/10/19 03:28:11;;;;;;;7.38;1.83;;;;;;;;;;5129770;27;20055;-75
2023/10/19 03:30:41;;;;;;;6.30;1.42;;;;;;;;;;5129394;28;20122;-74
2023/10/19 03:33:08;;;;;;;5.80;1.80;;;;;;;;;;5131779;28;20118;-75
2023/10/19 03:35:38;;;;;;;11.15;2.00;;;;;;;;;;5129388;28;20080;-75
2023/10/19 03:38:18;;;;;;;9.82;2.10;;;;;;;;;;5110834;28;20051;-72
2023/10/19 03:40:52;;;;;;;;;;;;;;;;;;5129810;28;20050;-73
2023/10/19 03:43:21;;;;;;;5.43;1.42;;;;;;;;;;5129582;27;19926;-74
2023/10/19 03:45:52;;;;;;;7.85;1.75;;;;;;;;;;5129442;28;20444;-74
2023/10/19 03:48:34;;;;;;;6.18;1.52;;;;;;;;;;5129441;28;20051;-75
2023/10/19 03:51:02;;;;;;;8.90;1.70;;;;;;;;;;5128833;28;20395;-75
2023/10/19 03:53:30;;;;;;;7.88;1.70;;;;;;;;;;5128872;28;20479;-72
2023/10/19 03:55:57;;;;;;;12.43;1.80;;;;;;;;;;5128982;28;20070;-75
2023/10/19 03:58:24;;;;;;;6.88;1.50;;;;;;;;;;5129284;28;20051;-71
2023/10/19 04:00:51;;;;;;;6.72;1.80;;;;;;;;;;5129122;27;20051;-74
2023/10/19 04:03:18;;;;;;;8.07;1.48;;;;;;;;;;5129372;28;20047;-74
2023/10/19 04:05:49;;;;;;;4.03;1.33;;;;;;;;;;5111018;28;20123;-76
2023/10/19 04:08:20;;;;;;;4.35;1.30;;;;;;;;;;5128974;28;20047;-74
2023/10/19 04:11:07;;;;;;;4.45;1.40;;;;;;;;;;5129003;27;20054;-75
2023/10/19 04:13:35;;;;;;;4.38;1.55;;;;;;;;;;5129078;28;20415;-76
2023/10/19 04:16:02;;;;;;;7.68;1.63;;;;;;;;;;5128844;28;20043;-74
2023/10/19 04:18:29;;;;;;;9.73;2.13;;;;;;;;;;5129126;28;20123;-75
2023/10/19 04:20:57;;;;;;;9.43;1.42;;;;;;;;;;5128560;28;20055;-75
2023/10/19 04:23:28;;;;;;;8.98;1.70;;;;;;;;;;5128535;28;20051;-75
2023/10/19 04:25:58;;;;;;;;;;;;;;;;;;5129058;28;20506;-75
2023/10/19 04:28:32;;;;;;;9.52;2.08;;;;;;;;;;5129230;28;19920;-75
2023/10/19 04:31:02;;;;;;;10.65;2.13;;;;;;;;;;5128488;27;20058;-75
2023/10/19 04:33:31;;;;;;;6.47;1.65;;;;;;;;;;5128804;27;20051;-75
2023/10/19 04:36:00;;;;;;;6.32;1.50;;;;;;;;;;5131731;27;20533;-75
2023/10/19 04:38:30;;;;;;;6.78;1.63;;;;;;;;;;5132071;27;20500;-75
2023/10/19 04:41:10;;;;;;;7.53;1.67;;;;;;;;;;5132362;27;20047;-73
2023/10/19 04:43:39;;;;;;;5.22;1.27;;;;;;;;;;5132248;27;20078;-75
2023/10/19 04:46:11;;;;;;;7.00;1.38;;;;;;;;;;5113851;27;20051;-76
2023/10/19 04:48:39;;;;;;;10.40;1.80;;;;;;;;;;5132859;27;20081;-74
2023/10/19 04:51:09;;;;;;;9.10;1.90;;;;;;;;;;5132123;27;20059;-74
2023/10/19 04:53:35;;;;;;;4.95;1.23;;;;;;;;;;5132128;27;20047;-74
2023/10/19 04:56:04;;;;;;;4.97;1.25;;;;;;;;;;5131953;27;20050;-75
2023/10/19 04:58:31;;;;;;;5.60;1.38;;;;;;;;;;5131778;27;20483;-72
2023/10/19 05:00:58;;;;;;;3.38;1.08;;;;;;;;;;5131951;27;20035;-72
2023/10/19 05:03:28;;;;;;;5.63;1.20;;;;;;;;;;5132262;27;20043;-74
2023/10/19 05:05:56;;;;;;;10.82;1.52;;;;;;;;;;5132093;27;20039;-76
2023/10/19 05:08:25;;;;;;;5.90;1.25;;;;;;;;;;5131983;27;20047;-75
2023/10/19 05:10:55;;;;;;;4.13;1.20;;;;;;;;;;5131589;27;20050;-73
2023/10/19 05:13:23;;;;;;;;;;;;;;;;;;5132512;27;20046;-73
2023/10/19 05:15:50;;;;;;;3.45;1.30;;;;;;;;;;5131133;27;19919;-69
2023/10/19 05:18:16;;;;;;;7.40;1.60;;;;;;;;;;5131482;27;20055;-70
2023/10/19 05:20:43;;;;;;;3.78;1.02;;;;;;;;;;5113000;27;20553;-70
2023/10/19 05:23:10;;;;;;;4.95;1.30;;;;;;;;;;5131460;27;20054;-73
2023/10/19 05:25:36;;;;;;;4.88;1.17;;;;;;;;;;5131521;27;20051;-72
2023/10/19 05:28:05;;;;;;;6.63;0.98;;;;;;;;;;5131712;27;20075;-72
2023/10/19 05:30:32;;;;;;;5.03;1.33;;;;;;;;;;5131340;27;20532;-75
2023/10/19 05:33:01;;;;;;;5.40;1.30;;;;;;;;;;5132040;27;20047;-74
2023/10/19 05:35:29;;;;;;;4.38;1.20;;;;;;;;;;5131589;27;20058;-75
2023/10/19 05:37:58;;;;;;;4.30;1.20;;;;;;;;;;5112843;27;20054;-75
2023/10/19 05:40:31;;;;;;;4.93;0.95;;;;;;;;;;5131515;27;20166;-75
2023/10/19 05:42:59;;;;;;;3.53;1.40;;;;;;;;;;5131431;27;20046;-75
2023/10/19 05:45:28;;;;;;;4.20;1.08;;;;;;;;;;5130892;27;20047;-76
2023/10/19 05:47:57;;;;;;;7.47;1.50;;;;;;;;;;5131300;27;20043;-74
2023/10/19 05:50:24;;;;;;;4.78;0.90;;;;;;;;;;5130992;27;20039;-75
2023/10/19 05:52:51;;;;;;;3.05;1.00;;;;;;;;;;5130844;27;20039;-75
2023/10/19 05:55:22;;;;;;;3.67;1.00;;;;;;;;;;5130872;27;20057;-74
2023/10/19 05:57:49;;;;;;;8.50;1.00;;;;;;;;;;5130943;27;20058;-75
2023/10/19 06:00:16;;;;;;;2.30;1.00;;;;;;;;;;5130935;27;20050;-75
2023/10/19 06:02:45;;;;;;;3.92;1.10;;;;;;;;;;5113000;27;20058;-75
2023/10/19 06:05:16;;;;;;;3.08;1.00;;;;;;;;;;5138725;27;20047;-75
2023/10/19 06:07:47;;;;;;;4.68;1.20;;;;;;;;;;5142799;27;20051;-75
2023/10/19 06:10:16;;;;;;;5.13;1.00;;;;;;;;;;5142351;27;20068;-75
2023/10/19 06:12:45;;;;;;;3.55;1.35;;;;;;;;;;5142388;27;20335;-74
2023/10/19 06:15:13;;;;;;;5.25;1.20;;;;;;;;;;5142324;27;20043;-75
2023/10/19 06:17:41;;;;;;;4.43;1.30;;;;;;;;;;5142153;27;20051;-74
2023/10/19 06:20:28;;;;;;;5.30;1.38;;;;;;;;;;5142115;27;20203;-75
2023/10/19 06:23:05;;;;;;;7.38;1.42;;;;;;;;;;5141995;27;20065;-72
2023/10/19 06:25:36;;;;;;;12.10;1.60;;;;;;;;;;5142100;27;20078;-75
2023/10/19 06:28:02;;;;;;;;;;;;;;;;;;5142600;27;20043;-74
2023/10/19 06:30:29;;;;;;;7.43;1.50;;;;;;;;;;5141759;27;20145;-74
2023/10/19 06:33:00;;;;;;;6.38;1.73;;;;;;;;;;5123790;27;20043;-75
2023/10/19 06:35:30;;;;;;;4.20;1.40;;;;;;;;;;5141908;27;20082;-74
2023/10/19 06:37:59;;;;;;;11.10;1.65;;;;;;;;;;5141810;27;20114;-74
2023/10/19 06:40:27;;;;;;;4.25;1.20;;;;;;;;;;5141787;27;20043;-75
2023/10/19 06:42:58;;;;;;;7.45;1.48;;;;;;;;;;5141609;27;20072;-75
2023/10/19 06:45:25;;;;;;;4.93;1.17;;;;;;;;;;5141894;27;20054;-74
2023/10/19 06:47:52;;;;;;;9.18;1.63;;;;;;;;;;5141755;27;20069;-75
2023/10/19 06:50:21;;;;;;;6.32;1.70;;;;;;;;;;5141784;27;20348;-75
2023/10/19 06:52:48;;;;;;;6.80;1.38;;;;;;;;;;5141853;27;20045;-75
2023/10/19 06:55:19;;;;;;;7.53;1.50;;;;;;;;;;5141537;27;20055;-73
2023/10/19 06:57:52;;;;;;;4.68;1.30;;;;;;;;;;5123285;27;20111;-75
2023/10/19 07:00:21;;;;;;;5.47;1.10;;;;;;;;;;5141545;27;20053;-75
2023/10/19 07:02:51;;;;;;;5.20;1.38;;;;;;;;;;5141460;27;20322;-70
2023/10/19 07:05:29;;;;;;;2.92;1.30;;;;;;;;;;5131226;27;20130;-75
2023/10/19 07:07:59;;;;;;;5.60;1.30;;;;;;;;;;5129458;27;20050;-75
2023/10/19 07:10:29;;;;;;;10.25;1.30;;;;;;;;;;5133746;27;20126;-75
2023/10/19 07:12:57;;;;;;;6.83;1.13;;;;;;;;;;5129451;27;20620;-74
2023/10/19 07:15:25;;;;;;;4.07;1.30;;;;;;;;;;5130009;27;20082;-75
2023/10/19 07:17:54;;;;;;;8.88;1.60;;;;;;;;;;5129455;27;20059;-73
2023/10/19 07:20:25;;;;;;;5.88;1.20;;;;;;;;;;5129859;27;20130;-74
2023/10/19 07:22:53;;;;;;;6.72;1.50;;;;;;;;;;5129501;27;20051;-75
2023/10/19 07:25:21;;;;;;;4.72;1.40;;;;;;;;;;5129420;27;20052;-71
2023/10/19 07:27:49;;;;;;;2.75;1.10;;;;;;;;;;5129163;27;20136;-73
2023/10/19 07:30:20;;;;;;;5.20;1.30;;;;;;;;;;5133492;28;20054;-75
2023/10/19 07:32:51;;;;;;;7.20;1.52;;;;;;;;;;5141245;28;20043;-75
2023/10/19 07:35:19;;;;;;;3.47;1.17;;;;;;;;;;5141633;28;20115;-74
2023/10/19 07:37:48;;;;;;;6.30;1.33;;;;;;;;;;5141223;28;20097;-76
2023/10/19 07:40:15;;;;;;;7.70;1.35;;;;;;;;;;5137436;28;20047;-76
2023/10/19 07:42:42;;;;;;;5.38;1.17;;;;;;;;;;5130602;28;20415;-73
2023/10/19 07:45:11;;;;;;;5.82;1.73;;;;;;;;;;5134368;28;20043;-70
2023/10/19 07:47:40;;;;;;;5.18;1.27;;;;;;;;;;5139883;28;20047;-74
2023/10/19 07:50:17;;;;;;;4.05;1.83;;;;;;;;;;5130968;28;20090;-73
2023/10/19 07:52:47;;;;;;;3.72;1.30;;;;;;;;;;5116471;28;20193;-71
2023/10/19 07:55:15;;;;;;;9.27;1.37;;;;;;;;;;5137878;28;20238;-74
2023/10/19 07:57:42;;;;;;;4.00;1.30;;;;;;;;;;5136458;28;20557;-74
2023/10/19 08:00:13;;;;;;;3.28;1.50;;;;;;;;;;5134172;28;20047;-74
2023/10/19 08:02:41;;;;;;;2.65;1.00;;;;;;;;;;5137154;28;20068;-73
2023/10/19 08:05:11;;;;;;;4.65;1.38;;;;;;;;;;5132564;28;20074;-73
2023/10/19 08:07:46;;;;;;;4.63;1.30;;;;;;;;;;5128926;28;20133;-74
2023/10/19 08:10:15;;;;;;;3.83;1.42;;;;;;;;;;5114269;27;20104;-73
2023/10/19 08:12:47;;;;;;;4.80;1.15;;;;;;;;;;5132561;27;20051;-75
2023/10/19 08:15:16;;;;;;;10.38;1.75;;;;;;;;;;5132546;27;20487;-74
2023/10/19 08:17:47;;;;;;;7.32;1.30;;;;;;;;;;5132262;27;20065;-75
2023/10/19 08:20:24;;;;;;;6.18;1.48;;;;;;;;;;5132801;27;20039;-75
2023/10/19 08:22:54;;;;;;;4.18;1.25;;;;;;;;;;5132788;27;20043;-75
2023/10/19 08:25:21;;;;;;;4.93;1.30;;;;;;;;;;5133057;27;20073;-75
2023/10/19 08:27:49;;;;;;;5.03;1.30;;;;;;;;;;5132693;27;20047;-72
2023/10/19 08:30:21;;;;;;;6.15;1.40;;;;;;;;;;5132868;27;20043;-75
2023/10/19 08:32:52;;;;;;;4.82;1.30;;;;;;;;;;5132355;27;20043;-75
2023/10/19 08:35:24;;;;;;;3.03;1.20;;;;;;;;;;5132692;27;20048;-75
2023/10/19 08:37:58;;;;;;;8.35;1.48;;;;;;;;;;5132373;27;20051;-75
2023/10/19 08:40:26;;;;;;;5.72;1.40;;;;;;;;;;5132661;27;20046;-75
2023/10/19 08:42:55;;;;;;;6.32;1.40;;;;;;;;;;5114069;27;20121;-75
2023/10/19 08:45:22;;;;;;;4.68;1.55;;;;;;;;;;5132554;27;20096;-74
2023/10/19 08:47:56;;;;;;;2.75;1.17;;;;;;;;;;5132273;27;20473;-74
2023/10/19 08:50:26;;;;;;;4.13;1.40;;;;;;;;;;5132596;27;20049;-75
2023/10/19 08:52:54;;;;;;;6.90;1.10;;;;;;;;;;5131668;27;20039;-75
2023/10/19 08:55:21;;;;;;;7.65;1.50;;;;;;;;;;5136504;27;20080;-74
2023/10/19 08:58:06;;;;;;;3.45;1.80;;;;;;;;;;5143725;27;20110;-74
2023/10/19 09:00:56;;;;;;;6.95;1.60;;;;;;;;;;5144025;27;20251;-75
2023/10/19 09:03:24;;;;;;;6.53;1.65;;;;;;;;;;5131927;27;20134;-74
2023/10/19 09:05:53;;;;;;;10.63;1.67;;;;;;;;;;5132658;27;20047;-75
2023/10/19 09:08:22;;;;;;;5.75;1.40;;;;;;;;;;5131403;27;20434;-74
2023/10/19 09:10:51;;;;;;;4.90;1.52;;;;;;;;;;5132211;27;20080;-75
2023/10/19 09:13:18;;;;;;;4.03;1.40;;;;;;;;;;5131808;27;20046;-75
2023/10/19 09:15:48;;;;;;;5.78;1.33;;;;;;;;;;5132228;27;20050;-70
2023/10/19 09:18:18;;;;;;;6.97;1.90;;;;;;;;;;5131562;27;20047;-74
2023/10/19 09:20:53;;;;;;;7.25;1.73;;;;;;;;;;5131210;27;20090;-74
2023/10/19 09:23:25;;;;;;;2.92;1.42;;;;;;;;;;5131357;27;20051;-71
2023/10/19 09:25:52;;;;;;;7.05;1.50;;;;;;;;;;5131950;27;20049;-74
2023/10/19 09:28:24;;;;;;;3.55;1.33;;;;;;;;;;5131494;27;20509;-74
2023/10/19 09:30:51;;;;;;;4.75;1.75;;;;;;;;;;5131505;27;20054;-70
2023/10/19 09:33:21;;;;;;;8.48;1.70;;;;;;;;;;5131238;27;20534;-68
2023/10/19 09:35:52;;;;;;;6.68;1.70;;;;;;;;;;5132006;27;20078;-71
2023/10/19 09:38:22;;;;;;;6.03;1.83;;;;;;;;;;5130956;27;20100;-73
2023/10/19 09:40:50;;;;;;;6.32;1.55;;;;;;;;;;5131374;27;20490;-73
2023/10/19 09:43:39;;;;;;;4.65;1.65;;;;;;;;;;5112844;27;20059;-74
2023/10/19 09:46:08;;;;;;;5.75;1.92;;;;;;;;;;5118079;27;20100;-70
2023/10/19 09:48:42;;;;;;;10.32;1.95;;;;;;;;;;5131290;27;20047;-71
2023/10/19 09:51:10;;;;;;;10.50;1.63;;;;;;;;;;5113189;27;20051;-72
2023/10/19 09:53:42;;;;;;;5.47;1.52;;;;;;;;;;5124320;27;20055;-68
2023/10/19 09:56:17;;;;;;;6.07;1.60;;;;;;;;;;5113632;27;20039;-69
2023/10/19 09:58:48;;;;;;;10.57;2.38;;;;;;;;;;5132391;27;20058;-76
2023/10/19 10:01:16;;;;;;;6.78;1.70;;;;;;;;;;5120554;27;20084;-77
2023/10/19 10:03:43;;;;;;;8.10;1.98;;;;;;;;;;5109824;28;20048;-73
2023/10/19 10:06:12;;;;;;;5.18;1.70;;;;;;;;;;5092443;28;20054;-73
2023/10/19 10:08:39;;;;;;;6.90;2.10;;;;;;;;;;5110290;27;20634;-76
2023/10/19 10:11:16;;;;;;;9.10;2.03;;;;;;;;;;5130657;27;20434;-75
2023/10/19 10:14:02;;;;;;;5.80;2.15;;;;;;;;;;5130750;27;20047;-70
2023/10/19 10:16:29;;;;;;;5.28;1.90;;;;;;;;;;5130420;27;20043;-76
2023/10/19 10:19:00;;;;;;;7.15;1.90;;;;;;;;;;5138135;27;20331;-75
2023/10/19 10:21:27;;;;;;;;;;;;;;;;;;5141910;27;20096;-76
2023/10/19 10:24:02;;;;;;;4.95;1.83;;;;;;;;;;5141196;27;19915;-77
2023/10/19 10:26:51;;;;;;;4.53;2.00;;;;;;;;;;5142008;27;20110;-77
2023/10/19 10:29:23;;;;;;;7.97;1.92;;;;;;;;;;5141734;27;20043;-72
2023/10/19 10:31:50;;;;;;;5.28;1.55;;;;;;;;;;5140696;27;20039;-75
2023/10/19 10:34:33;;;;;;;6.20;2.03;;;;;;;;;;5141508;27;20043;-77
2023/10/19 10:37:07;;;;;;;6.85;1.98;;;;;;;;;;5141393;27;20118;-76
2023/10/19 10:39:36;;;;;;;7.43;2.33;;;;;;;;;;5140735;27;20073;-77
2023/10/19 10:42:05;;;;;;;6.50;1.75;;;;;;;;;;5128029;27;20043;-73
2023/10/19 10:44:38;;;;;;;11.32;1.98;;;;;;;;;;5136785;27;20422;-75
2023/10/19 10:47:21;;;;;;;5.80;1.80;;;;;;;;;;5121225;28;20067;-71
2023/10/19 10:49:58;;;;;;;4.60;1.67;;;;;;;;;;5134007;27;20292;-79
2023/10/19 10:52:33;;;;;;;4.50;1.85;;;;;;;;;;5123559;27;20062;-72
2023/10/19 10:55:14;;;;;;;7.15;2.20;;;;;;;;;;5120461;28;20050;-75
2023/10/19 10:57:42;;;;;;;5.55;1.90;;;;;;;;;;5120579;27;20043;-74
2023/10/19 11:00:18;;;;;;;4.85;1.70;;;;;;;;;;5123071;27;20095;-73
2023/10/19 11:02:47;;;;;;;4.82;1.50;;;;;;;;;;5141650;27;20049;-74
2023/10/19 11:05:14;;;;;;;4.13;1.67;;;;;;;;;;5141442;27;20051;-75
2023/10/19 11:08:13;;;;;;;6.43;1.70;;;;;;;;;;5141208;27;20047;-73
2023/10/19 11:10:42;;;;;;;9.30;2.42;;;;;;;;;;5141134;27;20055;-75
2023/10/19 11:13:14;;;;;;;4.18;1.40;;;;;;;;;;5141192;27;20043;-72
2023/10/19 11:15:56;;;;;;;8.85;1.70;;;;;;;;;;5122475;27;20269;-75
2023/10/19 11:18:32;;;;;;;4.80;2.00;;;;;;;;;;5141160;27;20106;-75
2023/10/19 11:21:04;;;;;;;5.68;1.60;;;;;;;;;;5141396;27;20043;-74
2023/10/19 11:23:35;;;;;;;7.10;1.70;;;;;;;;;;5140795;27;20043;-74
2023/10/19 11:26:02;;;;;;;8.65;2.00;;;;;;;;;;5140930;27;20088;-76
2023/10/19 11:28:29;;;;;;;2.72;1.35;;;;;;;;;;5140941;27;20335;-74
2023/10/19 11:31:10;;;;;;;6.65;1.90;;;;;;;;;;5139721;27;20043;-74
2023/10/19 11:33:38;;;;;;;6.03;1.55;;;;;;;;;;5135612;28;20452;-75
2023/10/19 11:36:05;;;;;;;5.95;1.88;;;;;;;;;;5137202;28;20337;-73
2023/10/19 11:38:32;;;;;;;5.47;1.98;;;;;;;;;;5135962;27;20053;-70
2023/10/19 11:40:58;;;;;;;6.15;1.40;;;;;;;;;;5129298;28;20050;-71
2023/10/19 11:43:26;;;;;;;7.70;1.63;;;;;;;;;;5134818;27;20321;-70
2023/10/19 11:45:53;;;;;;;5.25;1.95;;;;;;;;;;5145302;27;20078;-71
2023/10/19 11:48:20;;;;;;;6.72;1.88;;;;;;;;;;5125258;27;20389;-73
2023/10/19 11:50:47;;;;;;;4.93;1.77;;;;;;;;;;5124364;28;20050;-73
2023/10/19 11:53:14;;;;;;;6.38;1.63;;;;;;;;;;5124169;28;20110;-72
2023/10/19 11:55:41;;;;;;;6.53;1.55;;;;;;;;;;5133551;27;20421;-73
2023/10/19 11:58:13;;;;;;;4.35;1.40;;;;;;;;;;5144645;27;20612;-73
2023/10/19 12:00:43;;;;;;;3.70;1.40;;;;;;;;;;5144813;27;20275;-72
2023/10/19 12:03:10;;;;;;;5.38;1.60;;;;;;;;;;5144373;27;20328;-75
2023/10/19 12:05:38;;;;;;;8.57;1.70;;;;;;;;;;5144638;27;20070;-69
2023/10/19 12:08:06;;;;;;;5.53;1.92;;;;;;;;;;5144161;27;20161;-72
2023/10/19 12:10:35;;;;;;;7.32;1.60;;;;;;;;;;5144525;27;20047;-72
2023/10/19 12:13:03;;;;;;;6.75;1.67;;;;;;;;;;5132743;27;20043;-73
2023/10/19 12:15:30;;;;;;;4.72;1.60;;;;;;;;;;5124151;28;20138;-68
2023/10/19 12:17:57;;;;;;;2.75;1.30;;;;;;;;;;5129598;27;20124;-73
2023/10/19 12:20:24;;;;;;;6.78;1.50;;;;;;;;;;5136790;27;20130;-75
2023/10/19 12:22:54;;;;;;;4.32;1.40;;;;;;;;;;5110934;28;20040;-73
2023/10/19 12:25:28;;;;;;;5.78;1.55;;;;;;;;;;5120103;27;20417;-73
2023/10/19 12:28:13;;;;;;;5.45;1.40;;;;;;;;;;5132275;27;20043;-73
2023/10/19 12:30:41;;;;;;;4.65;1.40;;;;;;;;;;5132410;27;20039;-74
2023/10/19 12:33:11;;;;;;;4.18;1.20;;;;;;;;;;5129280;27;20051;-73
2023/10/19 12:35:45;;;;;;;;;;;;;;;;;;5094684;28;20054;-75
2023/10/19 12:38:16;;;;;;;3.35;1.20;;;;;;;;;;5112392;28;20278;-74
2023/10/19 12:40:50;;;;;;;5.93;1.33;;;;;;;;;;5111345;28;20047;-73
2023/10/19 12:43:24;;;;;;;6.38;1.50;;;;;;;;;;5120287;28;20075;-73
2023/10/19 12:45:54;;;;;;;4.10;1.70;;;;;;;;;;5122944;28;20482;-74
2023/10/19 12:48:21;;;;;;;5.80;1.60;;;;;;;;;;5123571;28;20047;-74
2023/10/19 12:50:48;;;;;;;3.55;1.38;;;;;;;;;;5131336;27;20326;-73
2023/10/19 12:53:15;;;;;;;7.53;1.67;;;;;;;;;;5143312;27;20043;-73
2023/10/19 12:55:44;;;;;;;5.55;1.65;;;;;;;;;;5134399;27;20231;-74
2023/10/19 12:58:11;;;;;;;6.13;1.50;;;;;;;;;;5133018;27;20082;-77
2023/10/19 13:00:43;;;;;;;4.38;1.40;;;;;;;;;;5141394;27;20084;-73
2023/10/19 13:03:14;;;;;;;5.03;1.55;;;;;;;;;;5143840;27;20043;-72
2023/10/19 13:05:42;;;;;;;5.40;1.80;;;;;;;;;;5143240;27;20315;-69
2023/10/19 13:08:09;;;;;;;5.72;1.35;;;;;;;;;;5143132;27;20348;-71
2023/10/19 13:10:41;;;;;;;5.03;1.90;;;;;;;;;;5141545;27;20047;-74
2023/10/19 13:13:14;;;;;;;8.88;1.60;;;;;;;;;;5137135;27;20061;-73
2023/10/19 13:15:44;;;;;;;7.20;1.67;;;;;;;;;;5135850;27;20054;-72
2023/10/19 13:18:13;;;;;;;4.65;1.60;;;;;;;;;;5132674;27;20108;-70
2023/10/19 13:20:43;;;;;;;7.53;1.77;;;;;;;;;;5132394;27;20114;-73
2023/10/19 13:23:16;;;;;;;18.50;3.70;;;;;;;;;;5130786;27;20047;-72
2023/10/19 13:25:50;;;;;;;200.20;9.57;;;;;;;;;;5130736;27;20050;-69
2023/10/19 13:28:18;;;;;;;106.63;5.85;;;;;;;;;;5131520;27;20035;-72
2023/10/19 13:30:49;;;;;;;50.15;4.10;;;;;;;;;;5110301;28;20052;-72
2023/10/19 13:33:18;;;;;;;31.38;2.85;;;;;;;;;;5110885;28;20043;-72
2023/10/19 13:35:46;;;;;;;25.42;2.78;;;;;;;;;;5110393;28;20043;-70
2023/10/19 13:38:13;;;;;;;15.68;2.50;;;;;;;;;;5110259;28;20406;-71
2023/10/19 13:40:41;;;;;;;19.90;2.85;;;;;;;;;;5110380;28;20047;-70
2023/10/19 13:43:13;;;;;;;34.88;2.80;;;;;;;;;;5117728;28;20040;-72
2023/10/19 13:45:42;;;;;;;22.75;2.30;;;;;;;;;;5112150;28;20067;-73
2023/10/19 13:48:14;;;;;;;14.15;2.00;;;;;;;;;;5110555;28;20132;-71
2023/10/19 13:50:44;;;;;;;5.82;2.00;;;;;;;;;;5122882;27;20039;-73
2023/10/19 13:53:11;;;;;;;3.85;1.25;;;;;;;;;;5138592;27;20043;-78
2023/10/19 13:55:38;;;;;;;10.35;2.00;;;;;;;;;;5113071;27;20050;-72
2023/10/19 13:58:07;;;;;;;5.10;1.88;;;;;;;;;;5135095;27;20082;-74
2023/10/19 14:03:04;;;;;;;7.88;1.85;;;;;;;;;;5130388;27;20506;-72
2023/10/19 14:05:39;;;;;;;7.15;1.52;;;;;;;;;;5130078;27;20047;-75
2023/10/19 14:08:06;;;;;;;4.40;1.60;;;;;;;;;;5129056;27;20043;-73
2023/10/19 14:10:36;;;;;;;6.55;1.60;;;;;;;;;;5129246;27;20538;-75
2023/10/19 14:13:05;;;;;;;4.95;1.48;;;;;;;;;;5128660;27;20043;-75
2023/10/19 14:15:33;;;;;;;5.93;1.65;;;;;;;;;;5111262;27;20059;-73
2023/10/19 14:18:00;;;;;;;9.10;1.80;;;;;;;;;;5126012;27;20051;-74
2023/10/19 14:20:31;;;;;;;5.90;1.80;;;;;;;;;;5129826;27;20065;-71
2023/10/19 14:22:58;;;;;;;7.22;1.70;;;;;;;;;;5129320;27;20050;-76
2023/10/19 14:25:26;;;;;;;9.73;1.80;;;;;;;;;;5130126;27;20141;-72
2023/10/19 14:28:01;;;;;;;6.40;1.90;;;;;;;;;;5129665;27;20050;-77
2023/10/19 14:30:28;;;;;;;5.60;1.80;;;;;;;;;;5129879;27;20047;-77
2023/10/19 14:32:55;;;;;;;6.03;1.98;;;;;;;;;;5130041;27;20051;-75
2023/10/19 14:35:25;;;;;;;4.85;1.70;;;;;;;;;;5111775;27;20053;-75
2023/10/19 14:37:57;;;;;;;4.10;1.42;;;;;;;;;;5129985;27;20122;-76
2023/10/19 14:40:26;;;;;;;6.88;1.88;;;;;;;;;;5129890;27;20104;-74
2023/10/19 14:42:53;;;;;;;7.50;1.77;;;;;;;;;;5129697;27;20043;-77
2023/10/19 14:45:25;;;;;;;5.75;2.13;;;;;;;;;;5129710;27;20043;-77
2023/10/19 14:47:57;;;;;;;5.28;1.63;;;;;;;;;;5129213;27;20043;-76
2023/10/19 14:50:28;;;;;;;4.90;1.70;;;;;;;;;;5129584;27;20505;-77
2023/10/19 14:52:55;;;;;;;3.75;1.60;;;;;;;;;;5129062;27;20220;-77
2023/10/19 14:55:22;;;;;;;5.80;1.90;;;;;;;;;;5129908;27;20043;-76
2023/10/19 14:57:55;;;;;;;5.07;1.73;;;;;;;;;;5129419;27;20047;-77
2023/10/19 15:00:33;;;;;;;3.75;1.48;;;;;;;;;;5129443;27;20115;-76
2023/10/19 15:03:08;;;;;;;3.20;1.58;;;;;;;;;;5129448;27;20124;-72
2023/10/19 15:05:37;;;;;;;3.70;1.45;;;;;;;;;;5129263;27;20090;-72
2023/10/19 15:08:04;;;;;;;3.67;1.48;;;;;;;;;;5128768;27;20428;-74
2023/10/19 15:10:32;;;;;;;4.97;1.50;;;;;;;;;;5129315;27;20496;-74
2023/10/19 15:12:59;;;;;;;5.25;1.75;;;;;;;;;;5128989;27;20047;-75
2023/10/19 15:15:27;;;;;;;5.03;1.70;;;;;;;;;;5129219;27;20078;-76
2023/10/19 15:17:55;;;;;;;4.13;1.60;;;;;;;;;;5128327;27;20522;-76